createdAt,value
2023-01-29T00:00:21.936Z,28.67
2023-01-29T00:02:50.342Z,29.60
2023-01-29T00:05:27.790Z,27.53
2023-01-29T00:07:57.522Z,27.00
2023-01-29T00:10:26.489Z,24.30
2023-01-29T00:12:54.843Z,25.73
2023-01-29T00:15:24.565Z,25.10
2023-01-29T00:17:52.732Z,26.33
2023-01-29T00:20:21.086Z,25.10
2023-01-29T00:22:49.527Z,28.97
2023-01-29T00:25:17.791Z,27.00
2023-01-29T00:27:45.946Z,27.27
2023-01-29T00:30:19.366Z,27.20
2023-01-29T00:32:49.195Z,24.60
2023-01-29T00:35:17.438Z,28.00
2023-01-29T00:37:45.580Z,26.87
2023-01-29T00:40:14.317Z,26.80
2023-01-29T00:43:00.307Z,26.70
2023-01-29T00:45:28.488Z,26.23
2023-01-29T00:47:58.019Z,23.57
2023-01-29T00:50:26.212Z,26.20
2023-01-29T00:52:54.629Z,24.90
2023-01-29T00:55:23.194Z,25.67
2023-01-29T00:57:51.282Z,26.83
2023-01-29T01:00:20.437Z,26.10
2023-01-29T01:03:06.108Z,26.40
2023-01-29T01:05:36.758Z,27.30
2023-01-29T01:08:25.286Z,26.27
2023-01-29T01:11:00.201Z,28.13
2023-01-29T01:13:28.923Z,25.57
2023-01-29T01:15:57.093Z,25.70
2023-01-29T01:18:25.333Z,25.17
2023-01-29T01:20:58.646Z,25.70
2023-01-29T01:23:27.946Z,26.47
2023-01-29T01:25:56.212Z,27.10
2023-01-29T01:28:24.750Z,27.17
2023-01-29T01:30:52.973Z,24.50
2023-01-29T01:33:21.303Z,23.70
2023-01-29T01:35:49.505Z,26.13
2023-01-29T01:38:19.010Z,24.43
2023-01-29T01:40:47.646Z,24.73
2023-01-29T01:43:15.973Z,25.17
2023-01-29T01:45:46.581Z,23.80
2023-01-29T01:48:19.176Z,24.87
2023-01-29T01:50:51.039Z,24.47
2023-01-29T01:53:26.175Z,23.50
2023-01-29T01:55:57.235Z,26.57
2023-01-29T01:58:28.832Z,24.27
2023-01-29T02:00:57.619Z,23.50
2023-01-29T02:03:46.497Z,27.67
2023-01-29T02:06:31.940Z,27.17
2023-01-29T02:09:23.711Z,26.93
2023-01-29T02:11:52.606Z,24.13
2023-01-29T02:14:21.371Z,26.80
2023-01-29T02:16:49.603Z,27.67
2023-01-29T02:19:28.868Z,28.30
2023-01-29T02:22:18.169Z,27.30
2023-01-29T02:25:16.105Z,26.17
2023-01-29T02:28:21.444Z,25.13
2023-01-29T02:30:58.986Z,25.10
2023-01-29T02:33:36.519Z,23.40
2023-01-29T02:36:16.946Z,25.10
2023-01-29T02:38:51.959Z,27.40
2023-01-29T02:41:29.900Z,25.73
2023-01-29T02:44:07.801Z,23.73
2023-01-29T02:46:41.360Z,23.77
2023-01-29T02:49:15.985Z,25.77
2023-01-29T02:51:49.698Z,27.13
2023-01-29T02:54:22.960Z,25.83
2023-01-29T02:56:57.218Z,25.77
2023-01-29T02:59:32.752Z,26.77
2023-01-29T03:02:06.460Z,23.90
2023-01-29T03:04:42.550Z,25.00
2023-01-29T03:07:34.457Z,24.03
2023-01-29T03:10:04.676Z,24.67
2023-01-29T03:12:36.287Z,26.03
2023-01-29T03:15:14.167Z,22.67
2023-01-29T03:17:48.126Z,21.80
2023-01-29T03:20:20.644Z,24.07
2023-01-29T03:22:53.897Z,23.40
2023-01-29T03:25:41.241Z,24.87
2023-01-29T03:28:30.720Z,23.30
2023-01-29T03:31:21.726Z,23.90
2023-01-29T03:33:53.052Z,22.40
2023-01-29T03:36:28.281Z,26.83
2023-01-29T03:38:56.470Z,23.20
2023-01-29T03:41:29.782Z,23.97
2023-01-29T03:44:08.918Z,24.40
2023-01-29T03:46:46.645Z,24.80
2023-01-29T03:49:22.883Z,24.40
2023-01-29T03:51:57.527Z,22.87
2023-01-29T03:54:32.843Z,25.73
2023-01-29T03:57:05.166Z,24.40
2023-01-29T03:59:40.288Z,23.90
2023-01-29T04:02:14.270Z,25.90
2023-01-29T04:04:46.238Z,24.40
2023-01-29T04:07:17.271Z,25.57
2023-01-29T04:09:49.710Z,23.13
2023-01-29T04:12:22.919Z,23.97
2023-01-29T04:14:52.501Z,25.30
2023-01-29T04:17:26.724Z,22.97
2023-01-29T04:19:55.101Z,22.40
2023-01-29T04:22:29.115Z,22.37
2023-01-29T04:25:02.455Z,23.20
2023-01-29T04:27:42.150Z,24.17
2023-01-29T04:30:23.889Z,24.50
2023-01-29T04:33:04.120Z,22.27
2023-01-29T04:35:38.432Z,23.70
2023-01-29T04:38:15.652Z,21.43
2023-01-29T04:40:52.059Z,22.03
2023-01-29T04:43:27.930Z,24.00
2023-01-29T04:46:08.414Z,24.33
2023-01-29T04:48:48.804Z,24.43
2023-01-29T04:51:23.866Z,24.90
2023-01-29T04:54:00.269Z,23.63
2023-01-29T04:56:35.432Z,26.57
2023-01-29T04:59:07.501Z,23.20
2023-01-29T05:01:38.889Z,24.53
2023-01-29T05:04:12.018Z,23.80
2023-01-29T05:06:41.175Z,22.17
2023-01-29T05:09:10.311Z,23.30
2023-01-29T05:11:38.650Z,21.67
2023-01-29T05:14:11.012Z,24.70
2023-01-29T05:16:43.819Z,23.60
2023-01-29T05:19:15.976Z,23.53
2023-01-29T05:21:46.474Z,20.83
2023-01-29T05:24:17.277Z,23.07
2023-01-29T05:27:04.962Z,23.93
2023-01-29T05:29:33.199Z,22.57
2023-01-29T05:32:01.393Z,21.40
2023-01-29T05:34:31.038Z,24.20
2023-01-29T05:36:59.194Z,21.90
2023-01-29T05:39:27.583Z,23.40
2023-01-29T05:41:55.959Z,23.37
2023-01-29T05:44:24.119Z,23.87
2023-01-29T05:46:52.602Z,24.13
2023-01-29T05:49:22.376Z,21.97
2023-01-29T05:51:51.937Z,22.90
2023-01-29T05:54:20.167Z,21.90
2023-01-29T05:56:48.291Z,21.80
2023-01-29T05:59:16.819Z,22.27
2023-01-29T06:01:45.039Z,21.43
2023-01-29T06:04:13.327Z,21.67
2023-01-29T06:06:41.585Z,21.47
2023-01-29T06:09:12.666Z,21.97
2023-01-29T06:11:41.052Z,24.37
2023-01-29T06:14:09.224Z,25.33
2023-01-29T06:16:37.344Z,23.80
2023-01-29T06:19:05.565Z,22.87
2023-01-29T06:21:33.898Z,23.50
2023-01-29T06:24:02.146Z,21.03
2023-01-29T06:26:31.782Z,22.10
2023-01-29T06:28:59.991Z,21.73
2023-01-29T06:31:38.218Z,23.10
2023-01-29T06:34:07.890Z,22.13
2023-01-29T06:36:36.372Z,20.70
2023-01-29T06:39:05.665Z,23.13
2023-01-29T06:41:38.915Z,20.57
2023-01-29T06:44:07.154Z,21.83
2023-01-29T06:46:35.303Z,24.03
2023-01-29T06:49:03.521Z,21.63
2023-01-29T06:51:31.772Z,21.80
2023-01-29T06:53:59.933Z,24.07
2023-01-29T06:56:28.222Z,23.63
2023-01-29T06:58:57.824Z,23.07
2023-01-29T07:01:35.700Z,22.70
2023-01-29T07:04:04.901Z,21.17
2023-01-29T07:06:33.442Z,20.77
2023-01-29T07:09:01.702Z,21.97
2023-01-29T07:11:29.886Z,23.33
2023-01-29T07:13:59.445Z,23.53
2023-01-29T07:16:27.851Z,23.10
2023-01-29T07:18:56.522Z,23.33
2023-01-29T07:21:25.057Z,22.80
2023-01-29T07:23:53.275Z,23.83
2023-01-29T07:26:21.449Z,23.00
2023-01-29T07:28:49.601Z,22.10
2023-01-29T07:31:19.278Z,21.80
2023-01-29T07:33:47.533Z,22.50
2023-01-29T07:36:15.999Z,22.33
2023-01-29T07:38:44.177Z,22.40
2023-01-29T07:41:13.598Z,24.00
2023-01-29T07:43:41.731Z,22.43
2023-01-29T07:46:10.301Z,23.00
2023-01-29T07:48:39.886Z,21.77
2023-01-29T07:51:08.379Z,21.30
2023-01-29T07:53:36.993Z,21.30
2023-01-29T07:56:05.608Z,25.37
2023-01-29T07:58:35.750Z,21.13
2023-01-29T08:01:08.397Z,22.63
2023-01-29T08:03:36.784Z,23.57
2023-01-29T08:06:06.834Z,22.07
2023-01-29T08:08:35.117Z,23.80
2023-01-29T08:11:05.491Z,23.10
2023-01-29T08:13:34.486Z,21.00
2023-01-29T08:16:03.374Z,22.93
2023-01-29T08:18:32.217Z,19.90
2023-01-29T08:21:01.828Z,21.67
2023-01-29T08:23:31.691Z,22.90
2023-01-29T08:25:59.918Z,25.00
2023-01-29T08:28:28.206Z,23.30
2023-01-29T08:30:56.622Z,21.63
2023-01-29T08:33:38.075Z,22.47
2023-01-29T08:36:08.063Z,23.67
2023-01-29T08:38:37.707Z,22.00
2023-01-29T08:41:06.493Z,22.93
2023-01-29T08:43:36.736Z,21.93
2023-01-29T08:46:05.574Z,22.70
2023-01-29T08:48:33.799Z,23.50
2023-01-29T08:51:04.440Z,23.53
2023-01-29T08:53:32.922Z,23.40
2023-01-29T08:56:02.563Z,23.13
2023-01-29T08:58:30.825Z,24.47
2023-01-29T09:01:07.332Z,24.37
2023-01-29T09:03:35.507Z,23.60
2023-01-29T09:06:04.303Z,24.03
2023-01-29T09:08:32.511Z,24.10
2023-01-29T09:11:02.224Z,23.23
2023-01-29T09:13:30.714Z,23.03
2023-01-29T09:16:01.089Z,23.03
2023-01-29T09:18:31.828Z,22.77
2023-01-29T09:21:02.022Z,23.20
2023-01-29T09:23:30.677Z,23.27
2023-01-29T09:25:58.858Z,23.70
2023-01-29T09:28:28.473Z,23.23
2023-01-29T09:30:57.087Z,21.67
2023-01-29T09:33:26.141Z,23.30
2023-01-29T09:35:54.397Z,20.87
2023-01-29T09:38:22.621Z,21.97
2023-01-29T09:40:59.414Z,24.00
2023-01-29T09:43:40.265Z,25.77
2023-01-29T09:46:18.593Z,20.83
2023-01-29T09:48:49.139Z,22.53
2023-01-29T09:51:27.832Z,23.10
2023-01-29T09:54:06.741Z,23.60
2023-01-29T09:56:36.230Z,23.33
2023-01-29T09:59:05.790Z,22.97
2023-01-29T10:01:42.092Z,21.27
2023-01-29T10:04:46.784Z,22.47
2023-01-29T10:07:27.669Z,22.70
2023-01-29T10:10:22.862Z,23.83
2023-01-29T10:13:01.990Z,23.33
2023-01-29T10:15:46.552Z,21.47
2023-01-29T10:18:47.889Z,23.13
2023-01-29T10:21:33.909Z,24.37
2023-01-29T10:24:12.753Z,24.00
2023-01-29T10:26:41.784Z,23.23
2023-01-29T10:29:15.524Z,24.43
2023-01-29T10:31:49.152Z,24.70
2023-01-29T10:34:25.958Z,24.50
2023-01-29T10:36:56.867Z,25.47
2023-01-29T10:39:26.899Z,24.27
2023-01-29T10:42:19.639Z,23.17
2023-01-29T10:45:00.964Z,23.37
2023-01-29T10:47:49.327Z,24.80
2023-01-29T10:50:26.463Z,24.10
2023-01-29T10:53:08.222Z,23.23
2023-01-29T10:55:47.729Z,23.00
2023-01-29T10:58:27.596Z,22.73
2023-01-29T11:00:55.830Z,22.00
2023-01-29T11:03:28.926Z,24.97
2023-01-29T11:06:05.257Z,22.50
2023-01-29T11:08:39.397Z,23.10
2023-01-29T11:11:10.118Z,22.83
2023-01-29T11:13:43.712Z,24.43
2023-01-29T11:16:12.447Z,24.40
2023-01-29T11:18:54.617Z,24.00
2023-01-29T11:21:23.676Z,24.53
2023-01-29T11:23:52.384Z,23.47
2023-01-29T11:26:24.018Z,24.57
2023-01-29T11:28:52.657Z,25.57
2023-01-29T11:31:24.762Z,24.43
2023-01-29T11:34:03.102Z,22.60
2023-01-29T11:36:37.058Z,25.67
2023-01-29T11:39:21.671Z,23.30
2023-01-29T11:41:54.215Z,23.53
2023-01-29T11:44:28.761Z,22.17
2023-01-29T11:46:58.512Z,24.17
2023-01-29T11:49:34.817Z,25.00
2023-01-29T11:52:05.427Z,24.00
2023-01-29T11:54:38.316Z,24.23
2023-01-29T11:57:06.750Z,24.67
2023-01-29T11:59:42.855Z,24.70
2023-01-29T12:02:31.584Z,22.83
2023-01-29T12:05:04.389Z,24.03
2023-01-29T12:07:33.689Z,24.47
2023-01-29T12:10:01.944Z,24.50
2023-01-29T12:12:39.128Z,23.90
2023-01-29T12:15:18.157Z,26.43
2023-01-29T12:17:53.314Z,24.97
2023-01-29T12:20:29.451Z,24.03
2023-01-29T12:23:04.966Z,23.97
2023-01-29T12:25:42.344Z,23.73
2023-01-29T12:28:24.077Z,24.37
2023-01-29T12:31:12.817Z,25.37
2023-01-29T12:33:49.462Z,24.47
2023-01-29T12:36:26.521Z,24.63
2023-01-29T12:38:56.225Z,25.67
2023-01-29T12:41:31.881Z,25.20
2023-01-29T12:44:06.333Z,24.40
2023-01-29T12:46:39.889Z,24.53
2023-01-29T12:49:16.367Z,24.80
2023-01-29T12:51:54.317Z,24.13
2023-01-29T12:54:28.660Z,24.90
2023-01-29T12:57:01.076Z,24.10
2023-01-29T12:59:33.907Z,24.13
2023-01-29T13:02:12.514Z,25.80
2023-01-29T13:04:45.959Z,25.77
2023-01-29T13:07:18.793Z,25.80
2023-01-29T13:09:51.733Z,23.97
2023-01-29T13:12:23.059Z,25.90
2023-01-29T13:14:55.508Z,23.13
2023-01-29T13:17:27.683Z,23.77
2023-01-29T13:19:58.612Z,24.50
2023-01-29T13:22:30.608Z,23.03
2023-01-29T13:25:05.097Z,22.17
2023-01-29T13:27:36.062Z,23.63
2023-01-29T13:30:05.736Z,24.97
2023-01-29T13:32:36.850Z,25.37
2023-01-29T13:35:07.759Z,23.77
2023-01-29T13:37:42.106Z,23.93
2023-01-29T13:40:22.688Z,22.30
2023-01-29T13:42:53.095Z,22.97
2023-01-29T13:45:23.817Z,24.80
2023-01-29T13:47:53.809Z,23.10
2023-01-29T13:50:27.009Z,22.40
2023-01-29T13:53:00.374Z,22.00
2023-01-29T13:55:32.279Z,23.13
2023-01-29T13:58:01.264Z,22.47
2023-01-29T14:01:00.981Z,20.43
2023-01-29T14:04:05.525Z,21.80
2023-01-29T14:06:42.484Z,21.97
2023-01-29T14:09:50.490Z,21.37
2023-01-29T14:12:41.163Z,20.70
2023-01-29T14:15:32.289Z,19.90
2023-01-29T14:18:24.475Z,21.40
2023-01-29T14:20:59.531Z,19.70
2023-01-29T14:23:36.786Z,20.37
2023-01-29T14:26:07.403Z,19.70
2023-01-29T14:28:37.692Z,19.33
2023-01-29T14:31:07.565Z,18.73
2023-01-29T14:33:39.804Z,19.20
2023-01-29T14:36:13.436Z,18.20
2023-01-29T14:38:47.229Z,18.00
2023-01-29T14:41:22.995Z,17.60
2023-01-29T14:43:52.570Z,17.40
2023-01-29T14:46:43.709Z,17.63
2023-01-29T14:49:12.124Z,18.20
2023-01-29T14:51:45.341Z,13.20
2023-01-29T14:54:26.173Z,9.73
2023-01-29T14:57:00.454Z,8.77
2023-01-29T14:59:37.346Z,5.50
2023-01-29T15:02:16.718Z,5.70
2023-01-29T15:04:49.529Z,6.20
2023-01-29T15:07:26.375Z,5.47
2023-01-29T15:10:18.920Z,5.90
2023-01-29T15:12:50.416Z,5.90
2023-01-29T15:15:27.349Z,4.03
2023-01-29T15:18:00.753Z,5.43
2023-01-29T15:20:33.037Z,5.13
2023-01-29T15:23:03.162Z,4.57
2023-01-29T15:25:36.988Z,4.07
2023-01-29T15:28:10.159Z,19.70
2023-01-29T15:30:40.098Z,7.90
2023-01-29T15:33:11.608Z,28.23
2023-01-29T15:35:42.029Z,18.30
2023-01-29T15:38:17.367Z,15.27
2023-01-29T15:40:53.127Z,5.67
2023-01-29T15:43:23.465Z,22.60
2023-01-29T15:45:54.632Z,6.67
2023-01-29T15:48:31.990Z,4.13
2023-01-29T15:51:04.639Z,4.50
2023-01-29T15:53:37.209Z,4.73
2023-01-29T15:56:09.872Z,4.00
2023-01-29T15:58:38.511Z,4.73
2023-01-29T16:01:09.625Z,4.60
2023-01-29T16:03:38.915Z,4.70
2023-01-29T16:06:08.815Z,4.67
2023-01-29T16:08:39.407Z,4.40
2023-01-29T16:11:08.484Z,4.40
2023-01-29T16:13:41.006Z,4.17
2023-01-29T16:16:21.719Z,4.30
2023-01-29T16:18:59.961Z,4.23
2023-01-29T16:21:31.406Z,4.83
2023-01-29T16:24:02.270Z,4.20
2023-01-29T16:26:35.149Z,5.50
2023-01-29T16:29:05.892Z,4.73
2023-01-29T16:31:37.703Z,5.10
2023-01-29T16:34:09.828Z,7.37
2023-01-29T16:36:38.147Z,5.90
2023-01-29T16:39:14.419Z,6.20
2023-01-29T16:41:42.699Z,5.57
2023-01-29T16:44:33.743Z,5.60
2023-01-29T16:47:13.761Z,5.97
2023-01-29T16:49:49.597Z,6.07
2023-01-29T16:52:19.988Z,5.30
2023-01-29T16:54:48.162Z,8.60
2023-01-29T16:57:19.670Z,5.93
2023-01-29T16:59:48.421Z,5.87
2023-01-29T17:02:23.578Z,5.63
2023-01-29T17:04:53.625Z,6.07
2023-01-29T17:07:22.420Z,5.90
2023-01-29T17:09:54.223Z,6.07
2023-01-29T17:12:25.299Z,6.17
2023-01-29T17:14:55.508Z,6.30
2023-01-29T17:17:30.611Z,6.40
2023-01-29T17:19:59.460Z,7.63
2023-01-29T17:22:27.631Z,6.90
2023-01-29T17:24:55.812Z,6.50
2023-01-29T17:27:24.568Z,8.47
2023-01-29T17:29:53.654Z,6.70
2023-01-29T17:32:22.466Z,6.87
2023-01-29T17:34:52.513Z,6.73
2023-01-29T17:37:20.735Z,8.60
2023-01-29T17:39:52.527Z,8.07
2023-01-29T17:42:20.730Z,8.03
2023-01-29T17:44:50.119Z,8.50
2023-01-29T17:47:18.888Z,8.87
2023-01-29T17:49:47.759Z,8.77
2023-01-29T17:52:17.370Z,9.67
2023-01-29T17:54:45.525Z,8.53
2023-01-29T17:57:16.253Z,11.43
2023-01-29T17:59:45.494Z,10.23
2023-01-29T18:02:29.027Z,10.20
2023-01-29T18:04:58.119Z,9.73
2023-01-29T18:07:27.735Z,8.83
2023-01-29T18:09:55.923Z,10.30
2023-01-29T18:12:24.057Z,10.37
2023-01-29T18:14:54.997Z,8.20
2023-01-29T18:17:23.711Z,9.50
2023-01-29T18:19:51.894Z,10.17
2023-01-29T18:22:21.734Z,10.67
2023-01-29T18:24:51.481Z,10.37
2023-01-29T18:27:20.325Z,10.33
2023-01-29T18:29:50.313Z,8.77
2023-01-29T18:32:18.551Z,9.00
2023-01-29T18:34:46.771Z,9.27
2023-01-29T18:37:15.250Z,8.80
2023-01-29T18:39:43.484Z,9.20
2023-01-29T18:42:13.089Z,7.93
2023-01-29T18:44:41.360Z,7.70
2023-01-29T18:47:09.624Z,9.03
2023-01-29T18:49:39.121Z,8.43
2023-01-29T18:52:07.498Z,8.93
2023-01-29T18:54:35.902Z,10.07
2023-01-29T18:57:13.752Z,9.20
2023-01-29T18:59:53.760Z,8.63
2023-01-29T19:02:25.103Z,9.23
2023-01-29T19:04:54.794Z,8.30
2023-01-29T19:07:22.968Z,8.83
2023-01-29T19:09:51.220Z,9.47
2023-01-29T19:12:19.483Z,8.70
2023-01-29T19:14:47.803Z,9.57
2023-01-29T19:17:18.361Z,8.93
2023-01-29T19:19:49.506Z,8.67
2023-01-29T19:22:17.895Z,9.47
2023-01-29T19:24:46.122Z,10.37
2023-01-29T19:27:14.519Z,10.70
2023-01-29T19:29:42.711Z,10.13
2023-01-29T19:32:11.560Z,10.30
2023-01-29T19:34:41.433Z,10.70
2023-01-29T19:37:09.658Z,10.50
2023-01-29T19:39:38.119Z,10.90
2023-01-29T19:42:06.419Z,10.60
2023-01-29T19:44:34.993Z,11.30
2023-01-29T19:47:03.329Z,11.53
2023-01-29T19:49:33.913Z,11.50
2023-01-29T19:52:03.443Z,12.30
2023-01-29T19:54:31.606Z,11.77
2023-01-29T19:56:59.959Z,11.60
2023-01-29T19:59:28.302Z,11.50
2023-01-29T20:01:56.917Z,10.90
2023-01-29T20:04:26.790Z,11.30
2023-01-29T20:06:55.324Z,12.50
2023-01-29T20:09:24.844Z,12.20
2023-01-29T20:11:53.044Z,12.03
2023-01-29T20:14:21.357Z,11.97
2023-01-29T20:16:49.837Z,11.97
2023-01-29T20:19:20.004Z,12.17
2023-01-29T20:21:49.892Z,11.03
2023-01-29T20:24:18.398Z,11.77
2023-01-29T20:26:48.062Z,12.57
2023-01-29T20:29:16.294Z,10.07
2023-01-29T20:31:44.530Z,11.87
2023-01-29T20:34:12.759Z,12.80
2023-01-29T20:36:40.934Z,11.40
2023-01-29T20:39:09.203Z,11.53
2023-01-29T20:41:41.434Z,10.80
2023-01-29T20:44:11.294Z,10.00
2023-01-29T20:46:39.518Z,10.07
2023-01-29T20:49:07.822Z,11.60
2023-01-29T20:51:36.349Z,12.97
2023-01-29T20:54:04.851Z,11.80
2023-01-29T20:56:38.998Z,11.43
2023-01-29T20:59:17.303Z,11.57
2023-01-29T21:01:46.210Z,11.10
2023-01-29T21:04:14.544Z,11.20
2023-01-29T21:06:43.097Z,11.93
2023-01-29T21:09:11.279Z,11.77
2023-01-29T21:11:39.416Z,10.63
2023-01-29T21:14:07.851Z,11.13
2023-01-29T21:16:37.389Z,10.40
2023-01-29T21:19:05.576Z,10.57
2023-01-29T21:21:34.544Z,10.73
2023-01-29T21:24:02.757Z,10.80
2023-01-29T21:26:30.903Z,9.63
2023-01-29T21:28:59.064Z,10.40
2023-01-29T21:31:27.304Z,11.87
2023-01-29T21:33:56.892Z,10.50
2023-01-29T21:36:25.054Z,10.10
2023-01-29T21:38:53.252Z,10.13
2023-01-29T21:41:41.758Z,11.30
2023-01-29T21:44:09.075Z,10.20
2023-01-29T21:46:37.579Z,11.50
2023-01-29T21:49:07.368Z,10.97
2023-01-29T21:51:35.535Z,10.17
2023-01-29T21:54:03.713Z,10.50
2023-01-29T21:56:32.083Z,11.67
2023-01-29T21:59:00.705Z,11.77
2023-01-29T22:01:37.304Z,11.33
2023-01-29T22:04:11.535Z,10.03
2023-01-29T22:06:39.776Z,11.40
2023-01-29T22:09:10.770Z,10.70
2023-01-29T22:11:41.218Z,11.03
2023-01-29T22:14:09.594Z,10.83
2023-01-29T22:16:37.892Z,11.40
2023-01-29T22:19:16.155Z,11.47
2023-01-29T22:21:44.652Z,10.30
2023-01-29T22:24:13.325Z,11.63
2023-01-29T22:26:42.419Z,10.87
2023-01-29T22:29:12.559Z,11.17
2023-01-29T22:31:41.187Z,11.70
2023-01-29T22:34:10.984Z,10.37
2023-01-29T22:36:40.665Z,11.00
2023-01-29T22:39:09.830Z,11.60
2023-01-29T22:41:38.196Z,12.33
2023-01-29T22:44:06.545Z,11.50
2023-01-29T22:46:34.786Z,11.73
2023-01-29T22:49:03.055Z,11.70
2023-01-29T22:51:31.332Z,10.70
2023-01-29T22:54:01.124Z,12.30
2023-01-29T22:56:31.079Z,11.60
2023-01-29T22:59:02.690Z,11.40
2023-01-29T23:01:32.804Z,10.50
2023-01-29T23:04:01.031Z,10.97
2023-01-29T23:06:29.226Z,12.00
2023-01-29T23:08:57.430Z,11.57
2023-01-29T23:11:27.061Z,9.87
2023-01-29T23:13:55.961Z,11.47
2023-01-29T23:16:27.655Z,10.53
2023-01-29T23:18:56.955Z,8.87
2023-01-29T23:21:27.164Z,9.53
2023-01-29T23:23:55.378Z,10.77
2023-01-29T23:26:41.341Z,10.03
2023-01-29T23:29:11.282Z,9.30
2023-01-29T23:31:39.682Z,9.10
2023-01-29T23:34:07.925Z,9.23
2023-01-29T23:36:36.148Z,8.77
2023-01-29T23:39:04.666Z,9.03
2023-01-29T23:41:33.256Z,10.27
2023-01-29T23:44:01.423Z,10.00
2023-01-29T23:46:31.144Z,8.27
2023-01-29T23:48:59.471Z,10.80
2023-01-29T23:51:27.698Z,9.93
2023-01-29T23:53:56.027Z,9.70
2023-01-29T23:56:24.411Z,9.77
2023-01-29T23:58:54.532Z,9.43
